AirNav   Air Wisconsin pilot careers
 
 348 users online  

19KY Conrads Airport
Dry Ridge, Kentucky, USA

GOING TO DRY RIDGE?


FAA INFORMATION EFFECTIVE 28 FEBRUARY 2019

Location

FAA Identifier: 19KY
Lat/Long: 38-42-23.2420N / 084-35-59.7930W
38-42.387367N / 084-35.996550W
38.7064561 / -84.5999425
(estimated)
Elevation: 940 ft. / 287 m (estimated)
Variation: 03W (1985)
From city: 2 miles N of DRY RIDGE, KY
Time zone: UTC -5 (UTC -4 during Daylight Saving Time)
Zip code: 41035

Airport Operations

Airport use: Private use. Permission required prior to landing
Activation date: 08/1988
Control tower: no
ARTCC: INDIANAPOLIS CENTER
FSS: LOUISVILLE FLIGHT SERVICE STATION
Attendance: UNATNDD
Wind indicator: yes
Segmented circle: no

Airport Communications

WX AWOS-3 at K62 (10 nm E): 123.825 (859-654-1345)

Nearby radio navigation aids

VOR radial/distance  VOR name  Freq  Var
FLMr288/14.0FALMOUTH VOR/DME117.0004W
CVGr169/19.2CINCINNATI VORTAC117.3004W
FFTr028/(34.6)FRANKFORT VOR109.4003W

 
NDB name  Hdg/Dist  Freq  Var  ID
SPORTYS223/28.624504WPWF .--. .-- ..-.
CINCINNATI208/29.733504WLUK .-.. ..- -.-

Airport Services

Runway Information

Runway 18/36

Dimensions: 2200 x 60 ft. / 671 x 18 m
Surface: turf
RUNWAY 18  RUNWAY 36
Traffic pattern: leftleft

Airport Ownership and Management from official FAA records

Ownership: Privately-owned
Owner: MICHAEL CAUDILL
660 BANNISTER PIKE
DRY RIDGE, KY 41035
Phone 859-428-4868
Manager: MICHAEL CAUDILL
660 BANNISTER PIKE
DRY RIDGE, KY 41035
Phone 859-428-4868

Additional Remarks

TWR 1/2 NM S OF ARPT.

Instrument Procedures

There are no published instrument procedures at 19KY.

Some nearby airports with instrument procedures:

K62 - Gene Snyder Airport (10 nm E)
KCVG - Cincinnati/Northern Kentucky International Airport (21 nm N)
0I8 - Cynthiana-Harrison County Airport (25 nm SE)
KLUK - Cincinnati Municipal Airport-Lunken Field (25 nm N)
I69 - Clermont County Airport (29 nm NE)
 
Loc | Ops | Rwys | IFR | FBO | Links
Com | Nav | Svcs | Stats | Notes
Area around 19KY (Conrads Airport)
 
Road maps at: MapQuest Bing Google
 
Aerial photo
No photo
 
Sectional chart

 
Airport distance calculator
Flying to Conrads Airport? Find the distance to fly.

From to 19KY

Sunrise and sunset
Times for 20-Mar-2019
 Local
(UTC-4)
 Zulu
(UTC)
Morning civil twilight07:1611:16
Sunrise07:4311:43
Sunset19:4923:49
Evening civil twilight20:1600:16

Current date and time
Zulu (UTC)  20-Mar-2019 06:38:02
Local (UTC-4)  20-Mar-2019 02:38:02
 
METAR
KCVG 
21nm N 
200552Z 00000KT 10SM OVC250 04/M06 A3029 RMK AO2 SLP259 T00391056 10083 20028 56010
KLUK 
25nm N 
200553Z AUTO 00000KT 10SM CLR 01/M02 A3033 RMK AO2 SLP271 T00111022 10083 20006 58007
KI69 
29nm NE 
200615Z AUTO 00000KT 10SM CLR 02/M04 A3031 RMK AO2 T00151040
KI67 
34nm N 
200615Z AUTO 00000KT 10SM CLR M01/M03 A3031 RMK AO1
KFFT 
34nm SW 
200553Z AUTO 00000KT 10SM CLR 01/M03 A3029 RMK AO2 SLP259 T00111028 10089 20011 58011
KHAO 
40nm N 
200553Z AUTO 00000KT 10SM CLR 00/M03 A3032 RMK AO2 SLP271 T00001033 10061 21006 58008
KLEX 
40nm S 
200554Z 00000KT 10SM CLR 03/M04 A3029 RMK AO2 SLP260 T00281044 10089 20028 58012
KIMS 
41nm W 
200615Z AUTO 00000KT 10SM CLR 02/M01 A3031 RMK AO1
KFGX 
41nm E 
200615Z AUTO 00000KT 10SM CLR 04/M06 A3031 RMK AO2 T00351056
TAF
KCVG 
21nm N 
200535Z 2006/2112 VRB03KT P6SM BKN250 FM201200 15004KT P6SM SCT100 BKN150 FM201500 18008KT P6SM BKN100 FM201800 20012G18KT P6SM OVC080 FM210000 23008KT P6SM VCSH OVC050 FM210200 23006KT 6SM -SHRA OVC040 FM210500 24006KT 4SM -SHRA OVC022 FM210700 22004KT 4SM -SHRA BR OVC012 FM210900 24004KT 4SM -SHRA BR OVC006
KLUK 
25nm N 
200535Z 2006/2106 VRB03KT P6SM BKN250 FM201200 15004KT P6SM SCT100 BKN150 FM201500 18007KT P6SM BKN100 FM201800 20011G18KT P6SM OVC080 FM210000 22005KT P6SM VCSH OVC050 FM210200 23005KT 6SM -SHRA OVC040 FM210500 24004KT 4SM -SHRA OVC025
NOTAMs
Click for the latest NOTAMs
NOTAMs are issued by the DoD/FAA and will open in a separate window not controlled by AirNav.

 

 
 

Would you like to see your business listed on this page?

 If your business provides an interesting product or service to pilots, flight crews, aircraft, or users of the Conrads Airport, you should consider listing it here.  To start the listing process, click on the button below
 
Add a business
 

Other Pages about Conrads Airport

Update a link
 
Copyright © AirNav, LLC. All rights reserved. Privacy Policy  Contact